createdAt,value
2022-08-02T00:01:10.326Z,101558.38
2022-08-02T00:03:39.843Z,101544.59
2022-08-02T00:06:09.701Z,101550.34
2022-08-02T00:08:39.203Z,101554.75
2022-08-02T00:11:08.836Z,101552.75
2022-08-02T00:13:41.157Z,101561.63
2022-08-02T00:16:10.822Z,101557.59
2022-08-02T00:18:47.059Z,101551.84
2022-08-02T00:21:16.725Z,101555.50
2022-08-02T00:24:04.986Z,101553.94
2022-08-02T00:26:38.242Z,101549.22
2022-08-02T00:29:10.363Z,101534.03
2022-08-02T00:31:39.875Z,101538.56
2022-08-02T00:34:29.148Z,101534.97
2022-08-02T00:36:59.003Z,101536.13
2022-08-02T00:39:34.775Z,101531.78
2022-08-02T00:42:05.769Z,101549.13
2022-08-02T00:44:37.897Z,101540.47
2022-08-02T00:47:07.907Z,101537.09
2022-08-02T00:49:37.572Z,101536.13
2022-08-02T00:52:07.671Z,101535.47
2022-08-02T00:54:37.525Z,101547.50
2022-08-02T00:57:07.192Z,101549.25
2022-08-02T00:59:39.350Z,101555.22
2022-08-02T01:02:09.251Z,101557.94
2022-08-02T01:04:39.261Z,101561.41
2022-08-02T01:07:13.600Z,101550.16
2022-08-02T01:09:44.575Z,101539.63
2022-08-02T01:12:15.161Z,101537.63
2022-08-02T01:14:51.132Z,101535.66
2022-08-02T01:17:25.506Z,101536.22
2022-08-02T01:20:00.255Z,101525.56
2022-08-02T01:23:01.062Z,101526.00
2022-08-02T01:25:45.674Z,101528.91
2022-08-02T01:28:30.422Z,101525.53
2022-08-02T01:31:03.035Z,101521.63
2022-08-02T01:33:39.406Z,101524.09
2022-08-02T01:36:13.507Z,101530.00
2022-08-02T01:38:45.101Z,101530.59
2022-08-02T01:41:19.267Z,101530.94
2022-08-02T01:43:53.315Z,101536.59
2022-08-02T01:46:23.340Z,101529.16
2022-08-02T01:48:53.851Z,101525.59
2022-08-02T01:51:44.675Z,101518.66
2022-08-02T01:54:17.558Z,101503.75
2022-08-02T01:56:47.895Z,101505.19
2022-08-02T01:59:22.942Z,101502.69
2022-08-02T02:01:54.726Z,101496.56
2022-08-02T02:04:24.810Z,101505.19
2022-08-02T02:06:55.603Z,101502.59
2022-08-02T02:09:25.598Z,101508.72
2022-08-02T02:12:13.077Z,101514.06
2022-08-02T02:14:50.270Z,101511.19
2022-08-02T02:17:50.563Z,101517.81
2022-08-02T02:20:13.895Z,101511.91
2022-08-02T02:22:43.578Z,101525.94
2022-08-02T02:25:15.061Z,101519.94
2022-08-02T02:27:49.563Z,101515.44
2022-08-02T02:30:22.033Z,101519.81
2022-08-02T02:32:54.030Z,101525.88
2022-08-02T02:35:24.837Z,101523.19
2022-08-02T02:37:55.077Z,101529.97
2022-08-02T02:40:27.543Z,101530.78
2022-08-02T02:42:57.832Z,101545.13
2022-08-02T02:45:30.217Z,101539.09
2022-08-02T02:47:59.810Z,101537.31
2022-08-02T02:50:29.438Z,101539.53
2022-08-02T02:52:59.130Z,101546.47
2022-08-02T02:55:29.465Z,101545.25
2022-08-02T02:57:59.345Z,101541.31
2022-08-02T03:00:44.593Z,101553.44
2022-08-02T03:03:14.241Z,101544.25
2022-08-02T03:05:44.290Z,101540.59
2022-08-02T03:08:13.886Z,101542.94
2022-08-02T03:10:43.636Z,101542.81
2022-08-02T03:13:13.392Z,101545.94
2022-08-02T03:15:45.571Z,101545.41
2022-08-02T03:18:32.649Z,101544.78
2022-08-02T03:21:04.485Z,101550.31
2022-08-02T03:23:34.790Z,101545.84
2022-08-02T03:26:04.514Z,101537.06
2022-08-02T03:28:34.331Z,101541.94
2022-08-02T03:31:06.533Z,101539.09
2022-08-02T03:33:36.919Z,101538.63
2022-08-02T03:36:09.643Z,101533.22
2022-08-02T03:38:39.822Z,101536.09
2022-08-02T03:41:10.435Z,101531.81
2022-08-02T03:43:41.149Z,101528.63
2022-08-02T03:46:13.766Z,101534.84
2022-08-02T03:48:44.287Z,101534.38
2022-08-02T03:51:14.341Z,101528.31
2022-08-02T03:53:44.245Z,101512.47
2022-08-02T03:56:14.231Z,101515.75
2022-08-02T03:58:48.862Z,101515.91
2022-08-02T04:01:21.532Z,101508.72
2022-08-02T04:03:51.069Z,101514.59
2022-08-02T04:06:20.714Z,101522.06
2022-08-02T04:08:58.028Z,101530.72
2022-08-02T04:11:36.201Z,101533.41
2022-08-02T04:14:08.454Z,101532.97
2022-08-02T04:16:47.582Z,101525.59
2022-08-02T04:19:21.735Z,101529.81
2022-08-02T04:21:52.503Z,101526.06
2022-08-02T04:24:25.708Z,101531.22
2022-08-02T04:26:58.098Z,101536.59
2022-08-02T04:29:37.041Z,101538.91
2022-08-02T04:32:10.270Z,101536.94
2022-08-02T04:34:39.894Z,101542.19
2022-08-02T04:37:09.721Z,101548.22
2022-08-02T04:39:39.297Z,101549.06
2022-08-02T04:42:10.831Z,101547.06
2022-08-02T04:44:40.562Z,101551.88
2022-08-02T04:47:12.763Z,101549.38
2022-08-02T04:49:42.328Z,101545.81
2022-08-02T04:52:12.065Z,101554.09
2022-08-02T04:54:41.870Z,101552.16
2022-08-02T04:57:23.745Z,101559.19
2022-08-02T04:59:54.676Z,101551.53
2022-08-02T05:02:26.826Z,101545.81
2022-08-02T05:04:56.313Z,101548.88
2022-08-02T05:07:25.870Z,101555.25
2022-08-02T05:09:55.338Z,101561.25
2022-08-02T05:12:26.180Z,101566.72
2022-08-02T05:14:55.666Z,101574.19
2022-08-02T05:17:27.814Z,101585.03
2022-08-02T05:19:57.825Z,101574.63
2022-08-02T05:22:27.369Z,101577.13
2022-08-02T05:24:56.857Z,101575.56
2022-08-02T05:27:26.375Z,101571.31
2022-08-02T05:29:57.808Z,101560.97
2022-08-02T05:32:29.929Z,101569.78
2022-08-02T05:34:59.533Z,101572.25
2022-08-02T05:37:32.261Z,101589.91
2022-08-02T05:40:02.750Z,101592.16
2022-08-02T05:42:34.575Z,101592.78
2022-08-02T05:45:04.118Z,101593.75
2022-08-02T05:47:36.178Z,101599.16
2022-08-02T05:50:06.370Z,101583.91
2022-08-02T05:52:42.786Z,101582.75
2022-08-02T05:55:19.807Z,101576.31
2022-08-02T05:57:54.510Z,101573.31
2022-08-02T06:00:24.694Z,101569.41
2022-08-02T06:03:06.103Z,101566.53
2022-08-02T06:05:38.008Z,101565.28
2022-08-02T06:08:10.343Z,101566.66
2022-08-02T06:10:40.846Z,101568.88
2022-08-02T06:13:13.532Z,101573.31
2022-08-02T06:15:52.917Z,101561.09
2022-08-02T06:18:28.330Z,101564.91
2022-08-02T06:22:30.687Z,101575.72
2022-08-02T06:23:57.615Z,101576.22
2022-08-02T06:26:29.502Z,101579.19
2022-08-02T06:29:00.351Z,101590.06
2022-08-02T06:31:29.930Z,101593.84
2022-08-02T06:34:02.038Z,101598.56
2022-08-02T06:36:40.117Z,101599.22
2022-08-02T06:39:16.274Z,101603.09
2022-08-02T06:41:47.183Z,101608.56
2022-08-02T06:47:11.162Z,101615.31
2022-08-02T06:49:52.406Z,101618.84
2022-08-02T06:52:29.347Z,101614.84
2022-08-02T06:55:00.752Z,101617.03
2022-08-02T06:57:30.668Z,101622.47
2022-08-02T07:00:01.910Z,101625.03
2022-08-02T07:02:31.760Z,101635.03
2022-08-02T07:05:05.533Z,101636.56
2022-08-02T07:07:35.247Z,101641.94
2022-08-02T07:10:06.430Z,101644.69
2022-08-02T07:12:36.801Z,101643.28
2022-08-02T07:15:08.741Z,101653.25
2022-08-02T07:17:38.955Z,101650.44
2022-08-02T07:20:13.548Z,101650.56
2022-08-02T07:22:43.346Z,101673.44
2022-08-02T07:25:13.446Z,101671.94
2022-08-02T07:27:43.366Z,101675.03
2022-08-02T07:30:13.998Z,101681.75
2022-08-02T07:32:43.573Z,101696.72
2022-08-02T07:35:16.364Z,101726.47
2022-08-02T07:37:55.416Z,101747.25
2022-08-02T07:40:28.050Z,101760.09
2022-08-02T07:43:03.442Z,101774.31
2022-08-02T07:45:35.614Z,101794.28
2022-08-02T07:48:06.144Z,101813.66
2022-08-02T07:50:38.630Z,101826.44
2022-08-02T07:53:08.158Z,101843.75
2022-08-02T07:55:40.110Z,101849.16
2022-08-02T07:58:12.863Z,101863.44
2022-08-02T08:00:44.306Z,101896.19
2022-08-02T08:03:13.861Z,101889.94
2022-08-02T08:05:46.086Z,101888.13
2022-08-02T08:08:17.737Z,101908.28
2022-08-02T08:10:47.717Z,101946.59
2022-08-02T08:13:17.496Z,101969.75
2022-08-02T08:15:52.343Z,101972.25
2022-08-02T08:18:22.414Z,101980.81
2022-08-02T08:20:54.468Z,102018.03
2022-08-02T08:23:24.109Z,102037.56
2022-08-02T08:25:53.834Z,102049.00
2022-08-02T08:28:23.366Z,102039.59
2022-08-02T08:30:52.918Z,102069.00
2022-08-02T08:33:22.432Z,102075.97
2022-08-02T08:35:54.610Z,102088.78
2022-08-02T08:38:25.168Z,102072.91
2022-08-02T08:40:58.087Z,102069.47
2022-08-02T08:43:27.622Z,102077.97
2022-08-02T08:45:57.854Z,102071.00
2022-08-02T08:48:31.379Z,102096.31
2022-08-02T08:51:10.805Z,102116.69
2022-08-02T08:53:43.422Z,102114.06
2022-08-02T08:56:16.544Z,102109.09
2022-08-02T08:58:47.473Z,102114.47
2022-08-02T09:01:18.112Z,102120.53
2022-08-02T09:03:47.866Z,102127.56
2022-08-02T09:06:20.566Z,102119.69
2022-08-02T09:08:50.140Z,102099.69
2022-08-02T09:11:21.201Z,102091.59
2022-08-02T09:13:55.048Z,102088.28
2022-08-02T09:16:33.604Z,102078.66
2022-08-02T09:19:07.738Z,102079.38
2022-08-02T09:21:40.923Z,102068.63
2022-08-02T09:24:20.277Z,102061.41
2022-08-02T09:26:50.419Z,102044.50
2022-08-02T09:29:22.117Z,102036.34
2022-08-02T09:31:51.780Z,102004.78
2022-08-02T09:34:22.716Z,101899.72
2022-08-02T09:36:55.296Z,101726.03
2022-08-02T09:39:27.524Z,101658.38
2022-08-02T09:42:11.504Z,101404.28
2022-08-02T09:44:41.435Z,101236.28
2022-08-02T09:47:17.519Z,101187.81
2022-08-02T09:49:52.678Z,101126.88
2022-08-02T09:52:43.072Z,100986.78
2022-08-02T09:55:14.367Z,100963.03
2022-08-02T09:57:44.211Z,101023.25
2022-08-02T10:00:37.133Z,101047.78
2022-08-02T10:03:21.560Z,101047.03
2022-08-02T10:05:55.744Z,101084.97
2022-08-02T10:08:28.908Z,101081.75
2022-08-02T10:11:03.597Z,101114.97
2022-08-02T10:13:35.958Z,101106.75
2022-08-02T10:16:07.095Z,101155.75
2022-08-02T10:18:39.985Z,101174.28
2022-08-02T10:21:15.237Z,101194.44
2022-08-02T10:23:48.746Z,101242.50
2022-08-02T10:26:20.449Z,101274.63
2022-08-02T10:28:51.213Z,101297.28
2022-08-02T10:31:24.018Z,101304.56
2022-08-02T10:33:55.026Z,101293.66
2022-08-02T10:36:27.308Z,101309.13
2022-08-02T10:39:01.313Z,101325.91
2022-08-02T10:41:46.935Z,101298.84
2022-08-02T10:44:30.692Z,101303.25
2022-08-02T10:47:25.930Z,101314.53
2022-08-02T10:49:57.696Z,101301.56
2022-08-02T10:52:30.241Z,101300.91
2022-08-02T10:55:03.448Z,101302.03
2022-08-02T10:57:48.705Z,101298.38
2022-08-02T11:00:29.812Z,101288.69
2022-08-02T11:02:59.354Z,101283.53
2022-08-02T11:05:42.518Z,101290.69
2022-08-02T11:08:21.522Z,101284.78
2022-08-02T11:10:56.735Z,101292.72
2022-08-02T11:13:26.471Z,101293.47
2022-08-02T11:16:02.081Z,101292.63
2022-08-02T11:19:01.654Z,101287.53
2022-08-02T11:21:32.150Z,101289.44
2022-08-02T11:24:30.359Z,101289.47
2022-08-02T11:27:03.721Z,101285.97
2022-08-02T11:29:40.632Z,101296.41
2022-08-02T11:32:11.491Z,101291.94
2022-08-02T11:34:41.992Z,101271.88
2022-08-02T11:37:11.661Z,101268.53
2022-08-02T11:39:41.403Z,101265.06
2022-08-02T11:42:13.808Z,101273.81
2022-08-02T11:44:46.613Z,101278.31
2022-08-02T11:47:16.209Z,101289.66
2022-08-02T11:49:47.109Z,101283.53
2022-08-02T11:52:16.731Z,101285.34
2022-08-02T11:54:46.650Z,101274.78
2022-08-02T11:57:21.256Z,101273.06
2022-08-02T11:59:52.236Z,101266.09
2022-08-02T12:02:23.012Z,101262.59
2022-08-02T12:04:58.526Z,101267.84
2022-08-02T12:07:35.415Z,101261.72
2022-08-02T12:10:08.840Z,101253.84
2022-08-02T12:12:53.671Z,101245.94
2022-08-02T12:15:37.814Z,101242.44
2022-08-02T12:18:24.366Z,101244.22
2022-08-02T12:20:53.872Z,101250.38
2022-08-02T12:23:23.411Z,101259.13
2022-08-02T12:26:02.986Z,101253.84
2022-08-02T12:28:39.123Z,101245.09
2022-08-02T12:31:10.871Z,101239.84
2022-08-02T12:33:48.545Z,101231.09
2022-08-02T12:36:19.113Z,101229.28
2022-08-02T12:38:55.079Z,101238.03
2022-08-02T12:41:30.843Z,101230.88
2022-08-02T12:44:04.498Z,101223.66
2022-08-02T12:46:35.599Z,101223.53
2022-08-02T12:49:19.873Z,101221.03
2022-08-02T12:51:59.227Z,101215.03
2022-08-02T12:54:32.853Z,101210.31
2022-08-02T12:57:13.226Z,101202.28
2022-08-02T12:59:47.315Z,101209.03
2022-08-02T13:02:17.721Z,101216.31
2022-08-02T13:04:50.021Z,101207.78
2022-08-02T13:07:20.137Z,101218.41
2022-08-02T13:09:50.235Z,101224.50
2022-08-02T13:12:19.799Z,101216.31
2022-08-02T13:14:51.905Z,101214.53
2022-08-02T13:17:22.133Z,101212.72
2022-08-02T13:19:52.551Z,101212.84
2022-08-02T13:22:22.899Z,101217.06
2022-08-02T13:24:55.572Z,101208.25
2022-08-02T13:27:27.036Z,101212.84
2022-08-02T13:29:59.831Z,101204.88
2022-08-02T13:32:29.888Z,101200.66
2022-08-02T13:34:59.965Z,101204.81
2022-08-02T13:37:29.557Z,101188.63
2022-08-02T13:40:20.572Z,101195.91
2022-08-02T13:42:49.102Z,101190.50
2022-08-02T13:45:21.342Z,101192.91
2022-08-02T13:48:04.090Z,101189.31
2022-08-02T13:50:34.626Z,101177.47
2022-08-02T13:53:04.151Z,101183.34
2022-08-02T13:55:33.755Z,101173.75
2022-08-02T13:58:04.908Z,101169.63
2022-08-02T14:00:37.018Z,101173.34
2022-08-02T14:03:08.313Z,101162.69
2022-08-02T14:05:47.646Z,101160.19
2022-08-02T14:08:19.189Z,101162.09
2022-08-02T14:10:49.520Z,101162.84
2022-08-02T14:13:19.329Z,101159.16
2022-08-02T14:15:51.528Z,101164.34
2022-08-02T14:18:21.104Z,101153.63
2022-08-02T14:20:50.591Z,101163.59
2022-08-02T14:23:20.107Z,101155.56
2022-08-02T14:26:14.129Z,101150.41
2022-08-02T14:28:56.822Z,101146.88
2022-08-02T14:31:28.913Z,101149.66
2022-08-02T14:33:58.415Z,101152.22
2022-08-02T14:36:28.239Z,101147.69
2022-08-02T14:38:58.114Z,101146.34
2022-08-02T14:41:27.734Z,101151.09
2022-08-02T14:44:10.039Z,101148.50
2022-08-02T14:46:43.087Z,101149.41
2022-08-02T14:49:14.336Z,101152.88
2022-08-02T14:51:53.790Z,101163.34
2022-08-02T14:54:28.196Z,101156.22
2022-08-02T14:57:01.141Z,101144.75
2022-08-02T14:59:31.228Z,101145.44
2022-08-02T15:02:03.715Z,101145.53
2022-08-02T15:04:42.505Z,101150.16
2022-08-02T15:07:13.221Z,101140.66
2022-08-02T15:09:42.830Z,101147.63
2022-08-02T15:12:13.325Z,101144.97
2022-08-02T15:14:43.711Z,101136.94
2022-08-02T15:17:15.966Z,101128.94
2022-08-02T15:19:58.052Z,101135.25
2022-08-02T15:22:31.050Z,101133.38
2022-08-02T15:25:01.989Z,101129.84
2022-08-02T15:27:31.578Z,101129.84
2022-08-02T15:30:02.620Z,101128.94
2022-08-02T15:32:34.730Z,101117.41
2022-08-02T15:35:04.225Z,101124.50
2022-08-02T15:37:37.157Z,101127.09
2022-08-02T15:40:12.209Z,101128.88
2022-08-02T15:42:41.708Z,101129.91
2022-08-02T15:45:14.669Z,101136.78
2022-08-02T15:47:50.660Z,101123.69
2022-08-02T15:50:21.001Z,101122.06
2022-08-02T15:52:50.542Z,101134.53
2022-08-02T15:55:20.229Z,101121.59
2022-08-02T15:57:49.778Z,101126.03
2022-08-02T16:00:20.536Z,101128.66
2022-08-02T16:02:52.627Z,101133.09
2022-08-02T16:05:22.391Z,101134.81
2022-08-02T16:07:51.874Z,101123.47
2022-08-02T16:10:23.127Z,101133.13
2022-08-02T16:12:52.599Z,101112.03
2022-08-02T16:15:22.211Z,101113.03
2022-08-02T16:17:54.750Z,101115.75
2022-08-02T16:20:24.638Z,101109.63
2022-08-02T16:22:54.174Z,101110.50
2022-08-02T16:25:23.799Z,101101.69
2022-08-02T16:27:59.556Z,101110.50
2022-08-02T16:30:37.807Z,101104.38
2022-08-02T16:33:09.969Z,101110.50
2022-08-02T16:35:39.450Z,101106.13
2022-08-02T16:38:09.031Z,101105.28
2022-08-02T16:40:38.716Z,101101.78
2022-08-02T16:43:09.201Z,101093.00
2022-08-02T16:45:39.054Z,101097.41
2022-08-02T16:48:11.254Z,101096.50
2022-08-02T16:50:41.483Z,101093.00
2022-08-02T16:53:34.168Z,101095.63
2022-08-02T16:56:06.153Z,101092.09
2022-08-02T16:58:35.757Z,101083.34
2022-08-02T17:01:06.878Z,101088.63
2022-08-02T17:03:55.984Z,101087.78
2022-08-02T17:06:27.399Z,101080.75
2022-08-02T17:08:57.649Z,101083.41
2022-08-02T17:11:32.436Z,101084.25
2022-08-02T17:14:02.099Z,101068.44
2022-08-02T17:16:33.447Z,101057.06
2022-08-02T17:19:08.367Z,101070.22
2022-08-02T17:21:37.905Z,101079.03
2022-08-02T17:24:08.824Z,101074.59
2022-08-02T17:26:39.051Z,101082.47
2022-08-02T17:29:15.945Z,101074.56
2022-08-02T17:32:05.471Z,101058.75
2022-08-02T17:34:56.569Z,101071.03
2022-08-02T17:37:30.077Z,101078.00
2022-08-02T17:40:01.902Z,101080.63
2022-08-02T17:42:34.002Z,101074.47
2022-08-02T17:45:16.339Z,101070.97
2022-08-02T17:48:03.765Z,101075.38
2022-08-02T17:50:37.379Z,101064.81
2022-08-02T17:53:07.145Z,101056.97
2022-08-02T17:55:42.332Z,101034.16
2022-08-02T17:58:12.541Z,101045.59
2022-08-02T18:00:45.082Z,101016.63
2022-08-02T18:03:14.810Z,101014.88
2022-08-02T18:05:53.347Z,101033.31
2022-08-02T18:08:25.028Z,101016.66
2022-08-02T18:10:55.885Z,101013.16
2022-08-02T18:13:25.771Z,101009.69
2022-08-02T18:16:02.591Z,101015.00
2022-08-02T18:18:33.646Z,101015.00
2022-08-02T18:21:16.018Z,101008.91
2022-08-02T18:23:58.746Z,101010.72
2022-08-02T18:26:29.678Z,101022.13
2022-08-02T18:29:00.114Z,101023.88
2022-08-02T18:31:29.723Z,101013.41
2022-08-02T18:34:09.773Z,101003.78
2022-08-02T18:36:47.029Z,100992.44
2022-08-02T18:39:19.298Z,100998.59
2022-08-02T18:41:50.342Z,101011.75
2022-08-02T18:44:19.966Z,101015.25
2022-08-02T18:46:49.786Z,101021.41
2022-08-02T18:49:19.317Z,101018.78
2022-08-02T18:51:51.607Z,101006.56
2022-08-02T18:54:26.657Z,101003.94
2022-08-02T18:57:00.511Z,101000.44
2022-08-02T18:59:37.461Z,100985.59
2022-08-02T19:02:07.305Z,100972.44
2022-08-02T19:04:36.936Z,100962.84
2022-08-02T19:07:09.213Z,100960.22
2022-08-02T19:09:41.268Z,100958.47
2022-08-02T19:12:12.229Z,100947.94
2022-08-02T19:14:42.621Z,100944.47
2022-08-02T19:17:53.365Z,100923.47
2022-08-02T19:20:02.579Z,100923.47
2022-08-02T19:22:34.983Z,100917.34
2022-08-02T19:25:04.582Z,100915.63
2022-08-02T19:27:37.828Z,100915.66
2022-08-02T19:30:08.981Z,100903.41
2022-08-02T19:32:41.365Z,100899.00
2022-08-02T19:35:30.428Z,100885.00
2022-08-02T19:38:11.956Z,100880.63
2022-08-02T19:40:42.323Z,100871.00
2022-08-02T19:44:21.669Z,100850.88
2022-08-02T19:46:02.612Z,100839.50
2022-08-02T19:48:32.305Z,100817.59
2022-08-02T19:51:02.225Z,100805.34
2022-08-02T19:53:47.478Z,100771.22
2022-08-02T19:56:25.602Z,100744.09
2022-08-02T19:58:57.724Z,100717.88
2022-08-02T20:01:36.930Z,100694.22
2022-08-02T20:04:13.025Z,100700.38
2022-08-02T20:06:45.933Z,100687.25
2022-08-02T20:09:21.316Z,100684.63
2022-08-02T20:14:50.729Z,100649.63
2022-08-02T20:17:21.645Z,100633.88
2022-08-02T20:19:51.304Z,100603.28
2022-08-02T20:22:21.741Z,100556.06
2022-08-02T20:24:53.894Z,100549.91
2022-08-02T20:27:28.464Z,100540.31
2022-08-02T20:29:59.747Z,100528.06
2022-08-02T20:32:29.218Z,100540.31
2022-08-02T20:34:58.770Z,100549.06
2022-08-02T20:37:59.156Z,100568.34
2022-08-02T20:40:20.814Z,100554.38
2022-08-02T20:42:50.317Z,100549.13
2022-08-02T20:45:27.020Z,100553.50
2022-08-02T20:47:58.490Z,100557.91
2022-08-02T20:50:42.106Z,100565.81
2022-08-02T20:53:23.343Z,100571.97
2022-08-02T20:55:58.567Z,100574.59
2022-08-02T20:58:28.221Z,100568.50
2022-08-02T21:01:01.304Z,100571.13
2022-08-02T21:03:38.719Z,100560.66
2022-08-02T21:06:09.860Z,100559.78
2022-08-02T21:08:39.403Z,100573.78
2022-08-02T21:11:12.863Z,100599.16
2022-08-02T21:13:46.449Z,100587.81
2022-08-02T21:16:18.478Z,100607.97
2022-08-02T21:18:55.784Z,100616.72
2022-08-02T21:21:30.118Z,100611.44
2022-08-02T21:24:00.240Z,100628.97
2022-08-02T21:26:33.913Z,100609.75
2022-08-02T21:29:04.482Z,100629.00
2022-08-02T21:31:36.819Z,100642.16
2022-08-02T21:34:21.918Z,100657.88
2022-08-02T21:36:56.537Z,100661.41
2022-08-02T21:39:28.906Z,100643.03
2022-08-02T21:42:01.847Z,100615.03
2022-08-02T21:44:31.758Z,100608.88
2022-08-02T21:47:01.421Z,100615.06
2022-08-02T21:50:08.559Z,100604.56
2022-08-02T21:52:21.202Z,100588.81
2022-08-02T21:54:58.930Z,100576.59
2022-08-02T21:57:34.764Z,100580.97
2022-08-02T22:00:04.613Z,100587.13
2022-08-02T22:02:34.113Z,100646.59
2022-08-02T22:05:03.593Z,100720.06
2022-08-02T22:10:22.936Z,100753.31
2022-08-02T22:12:55.008Z,100750.69
2022-08-02T22:15:25.735Z,100750.66
2022-08-02T22:18:05.850Z,100735.84
2022-08-02T22:20:35.491Z,100756.81
2022-08-02T22:23:05.304Z,100769.94
2022-08-02T22:25:42.713Z,100787.41
2022-08-02T22:28:38.592Z,100812.78
2022-08-02T22:31:07.611Z,100822.38
2022-08-02T22:34:00.882Z,100819.75
2022-08-02T22:36:31.825Z,100842.50
2022-08-02T22:39:01.852Z,100859.13
2022-08-02T22:42:01.580Z,100859.97
2022-08-02T22:44:25.068Z,100883.59
2022-08-02T22:46:54.844Z,100903.63
2022-08-02T22:49:38.396Z,100897.53
2022-08-02T22:52:14.258Z,100902.75
2022-08-02T22:54:44.115Z,100893.16
2022-08-02T22:57:13.722Z,100880.94
2022-08-02T22:59:06.569Z,100664.50
2022-08-02T22:59:12.607Z,100741.06
2022-08-02T22:59:47.040Z,100880.03
2022-08-02T23:02:18.318Z,100868.69
2022-08-02T23:04:48.173Z,100852.09
2022-08-02T23:07:17.811Z,100864.28
2022-08-02T23:09:47.258Z,100863.41
2022-08-02T23:12:19.286Z,100865.16
2022-08-02T23:14:52.055Z,100864.28
2022-08-02T23:17:34.405Z,100861.66
2022-08-02T23:20:04.450Z,100863.38
2022-08-02T23:22:36.291Z,100853.78
2022-08-02T23:25:09.161Z,100844.16
2022-08-02T23:27:38.982Z,100839.78
2022-08-02T23:30:23.272Z,100819.69
2022-08-02T23:32:52.754Z,100811.84
2022-08-02T23:35:22.278Z,100790.88
2022-08-02T23:37:58.877Z,100795.25
2022-08-02T23:40:39.174Z,100787.38
2022-08-02T23:43:14.482Z,100779.50
2022-08-02T23:45:48.367Z,100767.31
2022-08-02T23:48:17.929Z,100770.75
2022-08-02T23:50:47.888Z,100767.28
2022-08-02T23:53:17.419Z,100765.50
2022-08-02T23:55:47.052Z,100766.41
2022-08-02T23:58:16.578Z,100766.38
